createdAt,value
2023-05-08T00:00:56.366Z,407.00
2023-05-08T00:01:56.401Z,410.00
2023-05-08T00:02:56.567Z,411.00
2023-05-08T00:03:56.642Z,409.00
2023-05-08T00:04:56.557Z,410.00
2023-05-08T00:05:56.564Z,408.00
2023-05-08T00:06:56.588Z,409.00
2023-05-08T00:07:56.653Z,407.00
2023-05-08T00:08:56.673Z,405.00
2023-05-08T00:09:56.732Z,403.00
2023-05-08T00:10:56.757Z,404.00
2023-05-08T00:11:56.804Z,405.00
2023-05-08T00:12:56.894Z,405.00
2023-05-08T00:13:56.900Z,404.00
2023-05-08T00:14:56.946Z,405.00
2023-05-08T00:15:57.005Z,408.00
2023-05-08T00:16:57.053Z,411.00
2023-05-08T00:17:57.103Z,412.00
2023-05-08T00:18:57.122Z,409.00
2023-05-08T00:19:57.178Z,409.00
2023-05-08T00:20:57.198Z,409.00
2023-05-08T00:21:57.236Z,410.00
2023-05-08T00:22:57.287Z,411.00
2023-05-08T00:23:57.324Z,408.00
2023-05-08T00:24:57.388Z,407.00
2023-05-08T00:25:57.434Z,407.00
2023-05-08T00:26:57.462Z,407.00
2023-05-08T00:27:57.500Z,405.00
2023-05-08T00:28:57.537Z,403.00
2023-05-08T00:29:57.587Z,401.00
2023-05-08T00:30:57.649Z,402.00
2023-05-08T00:31:57.727Z,402.00
2023-05-08T00:32:57.802Z,403.00
2023-05-08T00:33:57.709Z,402.00
2023-05-08T00:34:57.717Z,402.00
2023-05-08T00:35:57.725Z,404.00
2023-05-08T00:36:57.732Z,404.00
2023-05-08T00:37:57.732Z,404.00
2023-05-08T00:38:57.736Z,406.00
2023-05-08T00:39:57.746Z,407.00
2023-05-08T00:40:57.760Z,404.00
2023-05-08T00:41:57.768Z,403.00
2023-05-08T00:42:57.777Z,403.00
2023-05-08T00:43:57.787Z,404.00
2023-05-08T00:44:57.807Z,404.00
2023-05-08T00:45:57.868Z,403.00
2023-05-08T00:46:57.836Z,402.00
2023-05-08T00:47:57.868Z,400.00
2023-05-08T00:48:57.840Z,400.00
2023-05-08T00:49:57.872Z,397.00
2023-05-08T00:50:57.910Z,397.00
2023-05-08T00:51:57.984Z,398.00
2023-05-08T00:52:58.000Z,397.00
2023-05-08T00:53:58.059Z,398.00
2023-05-08T00:54:58.098Z,400.00
2023-05-08T00:55:58.141Z,401.00
2023-05-08T00:56:58.204Z,401.00
2023-05-08T00:57:58.250Z,400.00
2023-05-08T00:58:58.301Z,398.00
2023-05-08T00:59:58.352Z,396.00
2023-05-08T01:00:58.404Z,396.00
2023-05-08T01:01:58.564Z,396.00
2023-05-08T01:02:58.583Z,396.00
2023-05-08T01:03:58.589Z,394.00
2023-05-08T01:04:58.583Z,395.00
2023-05-08T01:05:58.652Z,396.00
2023-05-08T01:06:58.698Z,397.00
2023-05-08T01:07:58.712Z,397.00
2023-05-08T01:08:58.734Z,398.00
2023-05-08T01:09:58.777Z,398.00
2023-05-08T01:10:58.767Z,395.00
2023-05-08T01:11:58.775Z,396.00
2023-05-08T01:12:58.834Z,396.00
2023-05-08T01:13:58.807Z,395.00
2023-05-08T01:14:58.818Z,394.00
2023-05-08T01:15:58.880Z,395.00
2023-05-08T01:16:58.848Z,396.00
2023-05-08T01:17:58.902Z,394.00
2023-05-08T01:18:58.852Z,394.00
2023-05-08T01:19:58.854Z,393.00
2023-05-08T01:20:58.871Z,392.00
2023-05-08T01:21:58.895Z,392.00
2023-05-08T01:22:58.906Z,390.00
2023-05-08T01:23:58.908Z,392.00
2023-05-08T01:24:58.951Z,390.00
2023-05-08T01:25:58.988Z,390.00
2023-05-08T01:26:59.038Z,392.00
2023-05-08T01:27:59.092Z,395.00
2023-05-08T01:28:59.137Z,395.00
2023-05-08T01:29:59.191Z,396.00
2023-05-08T01:30:59.269Z,397.00
2023-05-08T01:31:59.318Z,400.00
2023-05-08T01:32:59.550Z,401.00
2023-05-08T01:33:59.488Z,399.00
2023-05-08T01:34:59.468Z,399.00
2023-05-08T01:35:59.513Z,398.00
2023-05-08T01:36:59.571Z,397.00
2023-05-08T01:37:59.602Z,395.00
2023-05-08T01:38:59.666Z,395.00
2023-05-08T01:39:59.709Z,395.00
2023-05-08T01:40:59.778Z,396.00
2023-05-08T01:41:59.883Z,395.00
2023-05-08T01:42:59.882Z,395.00
2023-05-08T01:43:59.944Z,393.00
2023-05-08T01:45:00.018Z,394.00
2023-05-08T01:46:00.054Z,393.00
2023-05-08T01:47:00.248Z,392.00
2023-05-08T01:48:00.240Z,393.00
2023-05-08T01:49:00.207Z,395.00
2023-05-08T01:50:00.290Z,397.00
2023-05-08T01:51:00.332Z,399.00
2023-05-08T01:52:00.386Z,398.00
2023-05-08T01:53:00.450Z,401.00
2023-05-08T01:54:00.517Z,401.00
2023-05-08T01:55:00.576Z,400.00
2023-05-08T01:56:00.620Z,400.00
2023-05-08T01:57:00.751Z,402.00
2023-05-08T01:58:00.738Z,401.00
2023-05-08T01:59:00.800Z,401.00
2023-05-08T02:00:00.862Z,402.00
2023-05-08T02:01:00.944Z,401.00
2023-05-08T02:02:01.016Z,400.00
2023-05-08T02:03:01.161Z,399.00
2023-05-08T02:04:01.085Z,400.00
2023-05-08T02:05:01.153Z,401.00
2023-05-08T02:06:01.190Z,401.00
2023-05-08T02:07:01.250Z,397.00
2023-05-08T02:08:01.318Z,397.00
2023-05-08T02:09:01.398Z,397.00
2023-05-08T02:10:01.445Z,396.00
2023-05-08T02:11:01.494Z,398.00
2023-05-08T02:12:01.542Z,397.00
2023-05-08T02:13:01.623Z,398.00
2023-05-08T02:14:01.627Z,398.00
2023-05-08T02:15:01.621Z,397.00
2023-05-08T02:16:01.672Z,399.00
2023-05-08T02:17:01.744Z,397.00
2023-05-08T02:18:01.705Z,397.00
2023-05-08T02:19:01.672Z,399.00
2023-05-08T02:20:01.675Z,401.00
2023-05-08T02:21:01.728Z,400.00
2023-05-08T02:22:01.711Z,400.00
2023-05-08T02:23:01.725Z,400.00
2023-05-08T02:24:01.724Z,400.00
2023-05-08T02:25:01.753Z,401.00
2023-05-08T02:26:01.754Z,400.00
2023-05-08T02:27:01.786Z,399.00
2023-05-08T02:28:01.851Z,401.00
2023-05-08T02:29:01.794Z,402.00
2023-05-08T02:30:01.798Z,404.00
2023-05-08T02:31:01.804Z,406.00
2023-05-08T02:32:01.839Z,405.00
2023-05-08T02:33:01.859Z,405.00
2023-05-08T02:34:01.896Z,404.00
2023-05-08T02:35:03.630Z,405.00
2023-05-08T02:36:02.044Z,404.00
2023-05-08T02:37:02.081Z,403.00
2023-05-08T02:38:02.112Z,404.00
2023-05-08T02:39:02.169Z,406.00
2023-05-08T02:40:02.219Z,405.00
2023-05-08T02:41:02.438Z,404.00
2023-05-08T02:42:02.371Z,401.00
2023-05-08T02:43:02.383Z,398.00
2023-05-08T02:44:02.450Z,398.00
2023-05-08T02:45:02.480Z,401.00
2023-05-08T02:46:02.587Z,402.00
2023-05-08T02:47:02.617Z,406.00
2023-05-08T02:48:02.687Z,407.00
2023-05-08T02:49:02.700Z,408.00
2023-05-08T02:50:02.783Z,408.00
2023-05-08T02:51:02.804Z,407.00
2023-05-08T02:52:02.914Z,406.00
2023-05-08T02:53:02.950Z,406.00
2023-05-08T02:54:02.972Z,405.00
2023-05-08T02:55:03.026Z,405.00
2023-05-08T02:56:03.028Z,407.00
2023-05-08T02:57:03.055Z,408.00
2023-05-08T02:58:03.059Z,405.00
2023-05-08T02:59:03.062Z,403.00
2023-05-08T03:00:03.076Z,402.00
2023-05-08T03:01:03.110Z,403.00
2023-05-08T03:02:03.107Z,401.00
2023-05-08T03:03:03.201Z,402.00
2023-05-08T03:04:03.125Z,403.00
2023-05-08T03:05:03.152Z,404.00
2023-05-08T03:06:03.148Z,403.00
2023-05-08T03:07:03.157Z,405.00
2023-05-08T03:08:03.167Z,402.00
2023-05-08T03:09:03.186Z,401.00
2023-05-08T03:10:03.206Z,402.00
2023-05-08T03:11:03.228Z,403.00
2023-05-08T03:12:03.235Z,405.00
2023-05-08T03:13:03.258Z,406.00
2023-05-08T03:14:03.298Z,404.00
2023-05-08T03:15:03.355Z,404.00
2023-05-08T03:16:03.427Z,403.00
2023-05-08T03:17:03.494Z,402.00
2023-05-08T03:18:03.584Z,401.00
2023-05-08T03:19:03.597Z,403.00
2023-05-08T03:20:03.667Z,403.00
2023-05-08T03:21:03.727Z,404.00
2023-05-08T03:22:03.780Z,402.00
2023-05-08T03:23:03.948Z,401.00
2023-05-08T03:24:03.919Z,399.00
2023-05-08T03:25:03.952Z,399.00
2023-05-08T03:26:04.003Z,400.00
2023-05-08T03:27:04.072Z,398.00
2023-05-08T03:28:04.144Z,397.00
2023-05-08T03:29:04.185Z,398.00
2023-05-08T03:30:04.259Z,399.00
2023-05-08T03:31:04.367Z,399.00
2023-05-08T03:32:04.435Z,400.00
2023-05-08T03:33:04.499Z,398.00
2023-05-08T03:34:04.524Z,401.00
2023-05-08T03:35:04.574Z,403.00
2023-05-08T03:36:04.645Z,403.00
2023-05-08T03:37:04.702Z,401.00
2023-05-08T03:38:04.762Z,401.00
2023-05-08T03:39:04.827Z,401.00
2023-05-08T03:40:04.879Z,399.00
2023-05-08T03:41:04.951Z,400.00
2023-05-08T03:42:05.011Z,400.00
2023-05-08T03:43:05.079Z,402.00
2023-05-08T03:44:05.132Z,400.00
2023-05-08T03:45:05.200Z,403.00
2023-05-08T03:46:05.255Z,402.00
2023-05-08T03:47:05.430Z,402.00
2023-05-08T03:48:05.420Z,404.00
2023-05-08T03:49:05.436Z,405.00
2023-05-08T03:50:05.511Z,405.00
2023-05-08T03:51:05.568Z,403.00
2023-05-08T03:52:05.638Z,400.00
2023-05-08T03:53:05.703Z,400.00
2023-05-08T03:54:05.763Z,399.00
2023-05-08T03:55:05.839Z,399.00
2023-05-08T03:56:05.903Z,398.00
2023-05-08T03:57:05.981Z,398.00
2023-05-08T03:58:06.034Z,397.00
2023-05-08T03:59:06.103Z,397.00
2023-05-08T04:00:06.176Z,400.00
2023-05-08T04:01:06.234Z,402.00
2023-05-08T04:02:06.323Z,400.00
2023-05-08T04:03:06.462Z,396.00
2023-05-08T04:04:06.475Z,397.00
2023-05-08T04:05:06.490Z,396.00
2023-05-08T04:06:06.528Z,396.00
2023-05-08T04:07:06.596Z,392.00
2023-05-08T04:08:06.660Z,393.00
2023-05-08T04:09:06.720Z,396.00
2023-05-08T04:10:06.790Z,394.00
2023-05-08T04:11:06.807Z,398.00
2023-05-08T04:12:06.818Z,400.00
2023-05-08T04:13:06.951Z,402.00
2023-05-08T04:14:06.850Z,399.00
2023-05-08T04:15:06.873Z,399.00
2023-05-08T04:16:06.892Z,397.00
2023-05-08T04:17:07.097Z,400.00
2023-05-08T04:18:06.977Z,400.00
2023-05-08T04:19:06.992Z,398.00
2023-05-08T04:20:06.954Z,400.00
2023-05-08T04:21:07.000Z,400.00
2023-05-08T04:22:07.004Z,401.00
2023-05-08T04:23:07.005Z,400.00
2023-05-08T04:24:07.064Z,400.00
2023-05-08T04:25:07.136Z,401.00
2023-05-08T04:26:07.207Z,402.00
2023-05-08T04:27:07.281Z,406.00
2023-05-08T04:28:07.356Z,404.00
2023-05-08T04:29:07.416Z,405.00
2023-05-08T04:30:07.473Z,405.00
2023-05-08T04:31:07.550Z,403.00
2023-05-08T04:32:07.747Z,401.00
2023-05-08T04:33:07.717Z,401.00
2023-05-08T04:34:07.704Z,404.00
2023-05-08T04:35:07.705Z,402.00
2023-05-08T04:36:07.813Z,403.00
2023-05-08T04:37:07.787Z,404.00
2023-05-08T04:38:07.845Z,402.00
2023-05-08T04:39:07.751Z,401.00
2023-05-08T04:40:07.776Z,401.00
2023-05-08T04:41:07.830Z,402.00
2023-05-08T04:42:07.829Z,405.00
2023-05-08T04:43:07.838Z,407.00
2023-05-08T04:44:07.849Z,410.00
2023-05-08T04:45:07.854Z,407.00
2023-05-08T04:46:07.954Z,408.00
2023-05-08T04:47:07.944Z,407.00
2023-05-08T04:48:07.919Z,405.00
2023-05-08T04:49:07.923Z,406.00
2023-05-08T04:50:07.955Z,408.00
2023-05-08T04:51:07.978Z,411.00
2023-05-08T04:52:08.026Z,409.00
2023-05-08T04:53:08.010Z,409.00
2023-05-08T04:54:08.036Z,411.00
2023-05-08T04:55:08.117Z,409.00
2023-05-08T04:56:08.184Z,408.00
2023-05-08T04:57:08.248Z,406.00
2023-05-08T04:58:08.225Z,405.00
2023-05-08T04:59:08.255Z,403.00
2023-05-08T05:00:08.270Z,402.00
2023-05-08T05:01:08.351Z,399.00
2023-05-08T05:02:08.430Z,397.00
2023-05-08T05:03:08.411Z,400.00
2023-05-08T05:04:08.406Z,399.00
2023-05-08T05:05:08.376Z,396.00
2023-05-08T05:06:08.360Z,397.00
2023-05-08T05:07:08.396Z,398.00
2023-05-08T05:08:08.421Z,399.00
2023-05-08T05:09:08.426Z,402.00
2023-05-08T05:10:08.421Z,403.00
2023-05-08T05:11:08.440Z,402.00
2023-05-08T05:12:08.463Z,401.00
2023-05-08T05:13:08.526Z,402.00
2023-05-08T05:14:08.550Z,402.00
2023-05-08T05:15:08.626Z,406.00
2023-05-08T05:16:08.734Z,407.00
2023-05-08T05:17:08.775Z,405.00
2023-05-08T05:18:08.891Z,404.00
2023-05-08T05:19:08.906Z,403.00
2023-05-08T05:20:09.001Z,403.00
2023-05-08T05:21:08.944Z,405.00
2023-05-08T05:22:08.981Z,405.00
2023-05-08T05:23:08.974Z,402.00
2023-05-08T05:24:08.986Z,402.00
2023-05-08T05:25:09.015Z,403.00
2023-05-08T05:26:09.038Z,402.00
2023-05-08T05:27:09.069Z,403.00
2023-05-08T05:28:09.060Z,406.00
2023-05-08T05:29:09.072Z,405.00
2023-05-08T05:30:09.101Z,405.00
2023-05-08T05:31:09.158Z,403.00
2023-05-08T05:32:09.202Z,404.00
2023-05-08T05:33:09.455Z,406.00
2023-05-08T05:34:09.364Z,404.00
2023-05-08T05:35:09.457Z,405.00
2023-05-08T05:36:09.525Z,405.00
2023-05-08T05:37:09.566Z,405.00
2023-05-08T05:38:09.649Z,404.00
2023-05-08T05:39:09.752Z,404.00
2023-05-08T05:40:09.794Z,430.00
2023-05-08T05:41:09.858Z,417.00
2023-05-08T05:42:09.937Z,554.00
2023-05-08T05:43:10.007Z,567.00
2023-05-08T05:44:10.046Z,603.00
2023-05-08T05:45:10.188Z,645.00
2023-05-08T05:46:10.163Z,677.00
2023-05-08T05:47:10.409Z,724.00
2023-05-08T05:48:10.269Z,756.00
2023-05-08T05:49:10.289Z,810.00
2023-05-08T05:50:10.550Z,830.00
2023-05-08T05:51:10.318Z,833.00
2023-05-08T05:52:10.327Z,895.00
2023-05-08T05:53:10.338Z,908.00
2023-05-08T05:54:10.536Z,915.00
2023-05-08T05:55:10.427Z,923.00
2023-05-08T05:56:10.355Z,929.00
2023-05-08T05:57:10.368Z,975.00
2023-05-08T05:58:10.404Z,994.00
2023-05-08T05:59:10.363Z,1017.00
2023-05-08T06:00:10.373Z,1041.00
2023-05-08T06:01:10.415Z,1076.00
2023-05-08T06:02:10.675Z,1071.00
2023-05-08T06:03:10.563Z,1085.00
2023-05-08T06:04:10.484Z,1104.00
2023-05-08T06:05:10.507Z,1143.00
2023-05-08T06:06:10.505Z,1154.00
2023-05-08T06:07:10.408Z,1160.00
2023-05-08T06:08:10.527Z,1170.00
2023-05-08T06:09:10.416Z,1205.00
2023-05-08T06:10:10.422Z,1225.00
2023-05-08T06:11:10.424Z,1236.00
2023-05-08T06:12:10.445Z,1248.00
2023-05-08T06:13:10.502Z,1260.00
2023-05-08T06:14:10.461Z,1271.00
2023-05-08T06:15:10.651Z,1288.00
2023-05-08T06:16:10.582Z,1307.00
2023-05-08T06:17:10.714Z,1325.00
2023-05-08T06:18:10.770Z,1339.00
2023-05-08T06:19:10.810Z,1363.00
2023-05-08T06:20:10.878Z,1361.00
2023-05-08T06:21:11.670Z,1335.00
2023-05-08T06:22:11.025Z,1382.00
2023-05-08T06:23:11.129Z,1389.00
2023-05-08T06:24:11.157Z,1180.00
2023-05-08T06:25:11.573Z,1299.00
2023-05-08T06:26:11.298Z,1237.00
2023-05-08T06:27:11.408Z,1100.00
2023-05-08T06:28:11.485Z,1128.00
2023-05-08T06:29:11.506Z,1170.00
2023-05-08T06:30:11.556Z,1200.00
2023-05-08T06:31:11.630Z,1184.00
2023-05-08T06:32:11.651Z,1161.00
2023-05-08T06:33:11.670Z,1104.00
2023-05-08T06:34:11.696Z,1147.00
2023-05-08T06:35:11.975Z,1137.00
2023-05-08T06:36:11.840Z,1018.00
2023-05-08T06:37:12.253Z,1068.00
2023-05-08T06:38:11.955Z,1048.00
2023-05-08T06:39:12.019Z,993.00
2023-05-08T06:40:12.999Z,979.00
2023-05-08T06:41:14.557Z,985.00
2023-05-08T06:42:12.129Z,973.00
2023-05-08T06:43:12.173Z,1043.00
2023-05-08T06:44:12.189Z,1052.00
2023-05-08T06:45:12.571Z,1084.00
2023-05-08T06:46:12.251Z,1053.00
2023-05-08T06:47:12.157Z,1135.00
2023-05-08T06:48:12.170Z,1198.00
2023-05-08T06:49:12.171Z,1205.00
2023-05-08T06:50:12.216Z,1237.00
2023-05-08T06:51:12.189Z,1232.00
2023-05-08T06:52:12.213Z,1252.00
2023-05-08T06:53:12.281Z,1261.00
2023-05-08T06:54:12.228Z,1305.00
2023-05-08T06:55:12.540Z,1326.00
2023-05-08T06:56:12.243Z,1338.00
2023-05-08T06:57:13.818Z,1412.00
2023-05-08T06:58:12.268Z,1409.00
2023-05-08T06:59:12.280Z,1422.00
2023-05-08T07:00:12.272Z,1454.00
2023-05-08T07:01:12.312Z,1473.00
2023-05-08T07:02:12.347Z,1488.00
2023-05-08T07:03:12.343Z,1505.00
2023-05-08T07:04:12.327Z,1542.00
2023-05-08T07:05:12.640Z,1557.00
2023-05-08T07:06:12.307Z,1571.00
2023-05-08T07:07:12.411Z,1590.00
2023-05-08T07:08:12.365Z,1603.00
2023-05-08T07:09:12.331Z,1617.00
2023-05-08T07:10:12.323Z,1637.00
2023-05-08T07:11:12.299Z,1710.00
2023-05-08T07:12:12.384Z,1665.00
2023-05-08T07:13:12.357Z,1678.00
2023-05-08T07:14:12.356Z,1694.00
2023-05-08T07:15:24.803Z,1719.00
2023-05-08T07:16:13.400Z,1742.00
2023-05-08T07:17:12.345Z,1759.00
2023-05-08T07:18:12.432Z,1776.00
2023-05-08T07:19:12.362Z,1788.00
2023-05-08T07:20:12.395Z,1821.00
2023-05-08T07:21:12.417Z,1813.00
2023-05-08T07:22:12.413Z,1821.00
2023-05-08T07:23:12.361Z,1831.00
2023-05-08T07:24:12.365Z,1846.00
2023-05-08T07:25:12.731Z,1859.00
2023-05-08T07:26:12.439Z,1867.00
2023-05-08T07:27:12.423Z,1881.00
2023-05-08T07:28:12.339Z,1890.00
2023-05-08T07:29:12.341Z,1898.00
2023-05-08T07:30:12.398Z,1910.00
2023-05-08T07:31:12.456Z,1911.00
2023-05-08T07:32:12.314Z,1976.00
2023-05-08T07:33:12.317Z,1973.00
2023-05-08T07:34:12.321Z,1981.00
2023-05-08T07:35:12.646Z,1993.00
2023-05-08T07:36:12.426Z,2028.00
2023-05-08T07:37:12.323Z,2049.00
2023-05-08T07:38:12.367Z,1187.00
2023-05-08T07:39:12.331Z,999.00
2023-05-08T07:40:12.344Z,852.00
2023-05-08T07:41:12.391Z,869.00
2023-05-08T07:42:12.336Z,1061.00
2023-05-08T07:43:12.365Z,779.00
2023-05-08T07:44:12.367Z,989.00
2023-05-08T07:45:12.579Z,877.00
2023-05-08T07:46:12.333Z,861.00
2023-05-08T07:47:12.430Z,882.00
2023-05-08T07:48:12.366Z,873.00
2023-05-08T07:49:12.388Z,875.00
2023-05-08T07:50:12.377Z,874.00
2023-05-08T07:51:12.352Z,875.00
2023-05-08T07:52:12.359Z,880.00
2023-05-08T07:53:12.390Z,867.00
2023-05-08T07:54:12.371Z,937.00
2023-05-08T07:55:12.524Z,851.00
2023-05-08T07:56:12.388Z,841.00
2023-05-08T07:57:12.499Z,836.00
2023-05-08T07:58:12.404Z,848.00
2023-05-08T07:59:12.439Z,840.00
2023-05-08T08:00:12.518Z,875.00
2023-05-08T08:01:12.543Z,894.00
2023-05-08T08:02:12.645Z,935.00
2023-05-08T08:03:12.825Z,929.00
2023-05-08T08:04:15.338Z,938.00
2023-05-08T08:05:13.011Z,933.00
2023-05-08T08:06:12.634Z,926.00
2023-05-08T08:07:12.613Z,936.00
2023-05-08T08:08:12.657Z,918.00
2023-05-08T08:09:12.625Z,926.00
2023-05-08T08:10:12.612Z,930.00
2023-05-08T08:11:12.635Z,853.00
2023-05-08T08:12:12.647Z,904.00
2023-05-08T08:13:12.812Z,895.00
2023-05-08T08:14:12.639Z,883.00
2023-05-08T08:15:12.877Z,876.00
2023-05-08T08:16:12.601Z,885.00
2023-05-08T08:17:12.717Z,862.00
2023-05-08T08:18:12.677Z,837.00
2023-05-08T08:19:12.694Z,907.00
2023-05-08T08:20:12.609Z,913.00
2023-05-08T08:21:12.593Z,840.00
2023-05-08T08:22:12.615Z,860.00
2023-05-08T08:23:12.638Z,891.00
2023-05-08T08:24:12.603Z,893.00
2023-05-08T08:25:12.797Z,887.00
2023-05-08T08:26:12.638Z,905.00
2023-05-08T08:27:12.661Z,891.00
2023-05-08T08:28:12.618Z,896.00
2023-05-08T08:29:12.643Z,899.00
2023-05-08T08:30:18.004Z,916.00
2023-05-08T08:31:13.708Z,803.00
2023-05-08T08:32:12.604Z,666.00
2023-05-08T08:33:12.644Z,629.00
2023-05-08T08:34:12.593Z,673.00
2023-05-08T08:35:13.093Z,604.00
2023-05-08T08:36:12.617Z,605.00
2023-05-08T08:37:12.591Z,603.00
2023-05-08T08:38:12.609Z,577.00
2023-05-08T08:39:14.736Z,567.00
2023-05-08T08:40:12.606Z,552.00
2023-05-08T08:41:12.676Z,545.00
2023-05-08T08:42:12.638Z,531.00
2023-05-08T08:43:12.655Z,526.00
2023-05-08T08:44:12.591Z,522.00
2023-05-08T08:45:12.914Z,525.00
2023-05-08T08:46:12.674Z,518.00
2023-05-08T08:47:12.629Z,515.00
2023-05-08T08:48:12.638Z,508.00
2023-05-08T08:49:12.619Z,507.00
2023-05-08T08:50:14.543Z,506.00
2023-05-08T08:51:12.757Z,503.00
2023-05-08T08:52:12.670Z,503.00
2023-05-08T08:53:12.654Z,500.00
2023-05-08T08:54:12.651Z,498.00
2023-05-08T08:55:12.860Z,497.00
2023-05-08T08:56:12.689Z,499.00
2023-05-08T08:57:12.716Z,502.00
2023-05-08T08:58:12.778Z,501.00
2023-05-08T08:59:12.808Z,499.00
2023-05-08T09:00:12.869Z,500.00
2023-05-08T09:01:12.933Z,498.00
2023-05-08T09:02:13.180Z,499.00
2023-05-08T09:03:13.092Z,502.00
2023-05-08T09:04:13.149Z,503.00
2023-05-08T09:05:13.350Z,505.00
2023-05-08T09:06:13.178Z,506.00
2023-05-08T09:07:13.418Z,508.00
2023-05-08T09:08:13.318Z,508.00
2023-05-08T09:09:13.408Z,511.00
2023-05-08T09:10:13.477Z,512.00
2023-05-08T09:11:13.490Z,510.00
2023-05-08T09:12:13.508Z,505.00
2023-05-08T09:13:13.726Z,503.00
2023-05-08T09:14:13.654Z,502.00
2023-05-08T09:15:14.147Z,498.00
2023-05-08T09:16:13.784Z,499.00
2023-05-08T09:17:13.912Z,498.00
2023-05-08T09:18:13.860Z,496.00
2023-05-08T09:19:13.863Z,496.00
2023-05-08T09:20:14.189Z,487.00
2023-05-08T09:21:13.988Z,488.00
2023-05-08T09:22:14.046Z,485.00
2023-05-08T09:23:14.260Z,487.00
2023-05-08T09:24:14.208Z,488.00
2023-05-08T09:25:14.520Z,488.00
2023-05-08T09:26:14.254Z,489.00
2023-05-08T09:27:14.337Z,488.00
2023-05-08T09:28:14.339Z,493.00
2023-05-08T09:29:14.437Z,493.00
2023-05-08T09:30:14.877Z,494.00
2023-05-08T09:31:14.484Z,497.00
2023-05-08T09:32:14.553Z,493.00
2023-05-08T09:33:14.589Z,486.00
2023-05-08T09:34:14.596Z,479.00
2023-05-08T09:35:14.913Z,481.00
2023-05-08T09:36:14.660Z,476.00
2023-05-08T09:37:14.774Z,479.00
2023-05-08T09:38:15.336Z,476.00
2023-05-08T09:39:15.438Z,482.00
2023-05-08T09:40:14.786Z,491.00
2023-05-08T09:41:14.805Z,552.00
2023-05-08T09:42:14.901Z,575.00
2023-05-08T09:43:14.889Z,618.00
2023-05-08T09:44:14.906Z,681.00
2023-05-08T09:45:15.112Z,692.00
2023-05-08T09:46:14.966Z,695.00
2023-05-08T09:47:14.968Z,709.00
2023-05-08T09:48:14.991Z,719.00
2023-05-08T09:49:14.955Z,775.00
2023-05-08T09:50:15.247Z,794.00
2023-05-08T09:51:15.069Z,813.00
2023-05-08T09:52:15.185Z,827.00
2023-05-08T09:53:15.239Z,838.00
2023-05-08T09:54:15.408Z,853.00
2023-05-08T09:55:15.474Z,839.00
2023-05-08T09:56:16.268Z,785.00
2023-05-08T09:57:15.514Z,803.00
2023-05-08T09:58:15.582Z,873.00
2023-05-08T09:59:15.659Z,806.00
2023-05-08T10:00:15.975Z,853.00
2023-05-08T10:01:15.821Z,877.00
2023-05-08T10:02:15.834Z,882.00
2023-05-08T10:03:15.908Z,787.00
2023-05-08T10:04:15.930Z,876.00
2023-05-08T10:05:16.032Z,798.00
2023-05-08T10:06:16.075Z,896.00
2023-05-08T10:07:16.111Z,859.00
2023-05-08T10:08:16.187Z,841.00
2023-05-08T10:09:16.280Z,886.00
2023-05-08T10:10:16.259Z,899.00
2023-05-08T10:11:16.404Z,829.00
2023-05-08T10:12:16.267Z,891.00
2023-05-08T10:13:16.363Z,832.00
2023-05-08T10:14:16.252Z,846.00
2023-05-08T10:15:16.249Z,903.00
2023-05-08T10:16:16.386Z,909.00
2023-05-08T10:17:16.346Z,914.00
2023-05-08T10:18:16.335Z,905.00
2023-05-08T10:19:16.398Z,882.00
2023-05-08T10:20:16.452Z,860.00
2023-05-08T10:21:16.539Z,928.00
2023-05-08T10:22:16.611Z,874.00
2023-05-08T10:23:16.723Z,884.00
2023-05-08T10:24:16.781Z,819.00
2023-05-08T10:25:16.772Z,825.00
2023-05-08T10:26:16.855Z,846.00
2023-05-08T10:27:16.984Z,806.00
2023-05-08T10:28:16.951Z,810.00
2023-05-08T10:29:17.067Z,840.00
2023-05-08T10:30:17.110Z,843.00
2023-05-08T10:31:17.172Z,838.00
2023-05-08T10:32:17.146Z,878.00
2023-05-08T10:33:17.130Z,877.00
2023-05-08T10:34:17.147Z,877.00
2023-05-08T10:35:17.125Z,881.00
2023-05-08T10:36:17.145Z,916.00
2023-05-08T10:37:17.124Z,926.00
2023-05-08T10:38:17.125Z,995.00
2023-05-08T10:39:17.132Z,1023.00
2023-05-08T10:40:17.143Z,1062.00
2023-05-08T10:41:17.163Z,1066.00
2023-05-08T10:42:17.198Z,1111.00
2023-05-08T10:43:17.391Z,1165.00
2023-05-08T10:44:17.279Z,1188.00
2023-05-08T10:45:17.271Z,1265.00
2023-05-08T10:46:17.339Z,1296.00
2023-05-08T10:47:17.282Z,1431.00
2023-05-08T10:48:17.264Z,1423.00
2023-05-08T10:49:17.241Z,1414.00
2023-05-08T10:50:17.285Z,1530.00
2023-05-08T10:51:17.225Z,1442.00
2023-05-08T10:52:17.230Z,1386.00
2023-05-08T10:53:17.245Z,1408.00
2023-05-08T10:54:17.246Z,1445.00
2023-05-08T10:55:17.210Z,1454.00
2023-05-08T10:56:17.190Z,1456.00
2023-05-08T10:57:17.192Z,1462.00
2023-05-08T10:58:17.190Z,1494.00
2023-05-08T10:59:17.236Z,1516.00
2023-05-08T11:00:17.186Z,1533.00
2023-05-08T11:01:17.226Z,1542.00
2023-05-08T11:02:17.226Z,1557.00
2023-05-08T11:03:30.759Z,1601.00
2023-05-08T11:04:18.279Z,1616.00
2023-05-08T11:05:17.209Z,1626.00
2023-05-08T11:06:17.197Z,1637.00
2023-05-08T11:07:17.151Z,1637.00
2023-05-08T11:08:17.165Z,1647.00
2023-05-08T11:09:17.193Z,1684.00
2023-05-08T11:10:17.167Z,1780.00
2023-05-08T11:11:17.117Z,1721.00
2023-05-08T11:12:17.169Z,1725.00
2023-05-08T11:13:17.162Z,1759.00
2023-05-08T11:14:17.101Z,1761.00
2023-05-08T11:15:17.083Z,1790.00
2023-05-08T11:16:17.098Z,1784.00
2023-05-08T11:17:17.057Z,1788.00
2023-05-08T11:18:17.042Z,1846.00
2023-05-08T11:19:17.101Z,1842.00
2023-05-08T11:20:17.402Z,1826.00
2023-05-08T11:21:17.091Z,1820.00
2023-05-08T11:22:17.273Z,1842.00
2023-05-08T11:23:17.208Z,1862.00
2023-05-08T11:24:17.270Z,1931.00
2023-05-08T11:25:17.325Z,1994.00
2023-05-08T11:26:17.342Z,2003.00
2023-05-08T11:27:17.439Z,1992.00
2023-05-08T11:28:17.632Z,2019.00
2023-05-08T11:29:17.493Z,2030.00
2023-05-08T11:30:17.561Z,2058.00
2023-05-08T11:31:17.703Z,2106.00
2023-05-08T11:32:17.651Z,1952.00
2023-05-08T11:33:17.749Z,1994.00
2023-05-08T11:34:17.948Z,1198.00
2023-05-08T11:35:17.936Z,1068.00
2023-05-08T11:36:17.839Z,1077.00
2023-05-08T11:37:17.852Z,1015.00
2023-05-08T11:38:17.951Z,1013.00
2023-05-08T11:39:17.846Z,998.00
2023-05-08T11:40:17.852Z,1132.00
2023-05-08T11:41:17.832Z,1184.00
2023-05-08T11:42:17.828Z,1046.00
2023-05-08T11:43:17.827Z,1197.00
2023-05-08T11:44:17.869Z,1023.00
2023-05-08T11:45:17.845Z,1032.00
2023-05-08T11:46:17.941Z,1033.00
2023-05-08T11:47:17.913Z,1117.00
2023-05-08T11:48:17.846Z,1111.00
2023-05-08T11:49:20.217Z,1115.00
2023-05-08T11:50:19.025Z,1235.00
2023-05-08T11:51:17.805Z,1132.00
2023-05-08T11:52:17.827Z,1201.00
2023-05-08T11:53:17.813Z,1216.00
2023-05-08T11:54:17.848Z,1215.00
2023-05-08T11:55:17.826Z,1208.00
2023-05-08T11:56:17.836Z,1203.00
2023-05-08T11:57:17.818Z,1199.00
2023-05-08T11:58:17.860Z,1193.00
2023-05-08T11:59:17.843Z,1189.00
2023-05-08T12:00:18.074Z,1184.00
2023-05-08T12:01:17.848Z,1179.00
2023-05-08T12:02:17.830Z,1176.00
2023-05-08T12:03:18.094Z,1174.00
2023-05-08T12:04:17.934Z,1170.00
2023-05-08T12:05:17.823Z,1169.00
2023-05-08T12:06:17.819Z,1167.00
2023-05-08T12:07:17.818Z,1167.00
2023-05-08T12:08:17.803Z,1166.00
2023-05-08T12:09:17.837Z,1162.00
2023-05-08T12:10:18.233Z,1157.00
2023-05-08T12:11:17.810Z,1151.00
2023-05-08T12:12:17.807Z,1147.00
2023-05-08T12:13:17.848Z,1144.00
2023-05-08T12:14:17.779Z,1141.00
2023-05-08T12:15:17.791Z,1142.00
2023-05-08T12:16:17.761Z,1141.00
2023-05-08T12:17:17.901Z,1136.00
2023-05-08T12:18:17.749Z,1133.00
2023-05-08T12:19:17.785Z,1131.00
2023-05-08T12:20:18.052Z,1128.00
2023-05-08T12:21:17.806Z,1122.00
2023-05-08T12:22:17.755Z,1121.00
2023-05-08T12:23:17.792Z,1118.00